Time;durP1;ratioP1;P1;durP2;ratioP2;P2;SDS_P1;SDS_P2;PMS_P1;PMS_P2;Temp;Humidity;BMP_temperature;BMP_pressure;BME280_temperature;BME280_humidity;BME280_pressure;Samples;Min_cycle;Max_cycle;Signal;HPM_P1;HPM_P2
2023/11/10 00:01:18;;;;;;;;;;;;;;;;;;5131697;27;19927;-60
2023/11/10 00:03:44;;;;;;;;;;;;;;;;;;5120646;27;19971;-60
2023/11/10 00:06:10;;;;;;;;;;;;;;;;;;5124506;27;19920;-60
2023/11/10 00:08:36;;;;;;;;;;;;;;;;;;5119460;27;19920;-60
2023/11/10 00:11:02;;;;;;;;;;;;;;;;;;5128190;27;19927;-61
2023/11/10 00:13:28;;;;;;;;;;;;;;;;;;5129880;27;20327;-60
2023/11/10 00:15:55;;;;;;;;;;;;;;;;;;5134769;27;20018;-60
2023/11/10 00:18:20;;;;;;;;;;;;;;;;;;5125476;27;19929;-60
2023/11/10 00:20:46;;;;;;;;;;;;;;;;;;5124777;27;20337;-60
2023/11/10 00:23:12;;;;;;;;;;;;;;;;;;5133409;27;19974;-60
2023/11/10 00:25:38;;;;;;;;;;;;;;;;;;5131812;27;19923;-60
2023/11/10 00:28:04;;;;;;;;;;;;;;;;;;5129399;27;19935;-60
2023/11/10 00:30:30;;;;;;;;;;;;;;;;;;5129508;27;19927;-60
2023/11/10 00:32:56;;;;;;;;;;;;;;;;;;5129420;27;19923;-60
2023/11/10 00:35:22;;;;;;;;;;;;;;;;;;5131257;27;20015;-60
2023/11/10 00:37:50;;;;;;;;;;;;;;;;;;5130809;27;20574;-60
2023/11/10 00:40:16;;;;;;;;;;;;;;;;;;5132174;27;19924;-60
2023/11/10 00:42:41;;;;;;;;;;;;;;;;;;5134059;27;19946;-60
2023/11/10 00:45:07;;;;;;;;;;;;;;;;;;5134510;27;19927;-60
2023/11/10 00:47:33;;;;;;;;;;;;;;;;;;5130367;27;20148;-60
2023/11/10 00:49:59;;;;;;;;;;;;;;;;;;5128545;27;19924;-60
2023/11/10 00:52:25;;;;;;;;;;;;;;;;;;5133318;27;20296;-60
2023/11/10 00:54:51;;;;;;;;;;;;;;;;;;5133224;27;19919;-60
2023/11/10 00:57:17;;;;;;;;;;;;;;;;;;5131720;27;19919;-60
2023/11/10 00:59:43;;;;;;;;;;;;;;;;;;5131646;27;20023;-60
2023/11/10 01:02:09;;;;;;;;;;;;;;;;;;5130174;27;20105;-60
2023/11/10 01:04:35;;;;;;;;;;;;;;;;;;5132978;27;19919;-60
2023/11/10 01:07:01;;;;;;;;;;;;;;;;;;5133809;27;19919;-60
2023/11/10 01:09:27;;;;;;;;;;;;;;;;;;5133046;27;19924;-60
2023/11/10 01:11:53;;;;;;;;;;;;;;;;;;5131101;27;19923;-60
2023/11/10 01:14:20;;;;;;;;;;;;;;;;;;5131289;27;19920;-60
2023/11/10 01:16:46;;;;;;;;;;;;;;;;;;5134234;27;19969;-60
2023/11/10 01:19:13;;;;;;;;;;;;;;;;;;5127031;27;19920;-60
2023/11/10 01:21:39;;;;;;;;;;;;;;;;;;5133010;27;20269;-60
2023/11/10 01:24:04;;;;;;;;;;;;;;;;;;5132201;27;19923;-61
2023/11/10 01:26:31;;;;;;;;;;;;;;;;;;5132616;27;19938;-60
2023/11/10 01:28:57;;;;;;;;;;;;;;;;;;5128710;27;19970;-60
2023/11/10 01:31:23;;;;;;;;;;;;;;;;;;5132092;27;19970;-60
2023/11/10 01:33:49;;;;;;;;;;;;;;;;;;5133500;27;20313;-61
2023/11/10 01:36:15;;;;;;;;;;;;;;;;;;5132046;27;19928;-60
2023/11/10 01:38:41;;;;;;;;;;;;;;;;;;5133731;27;19924;-60
2023/11/10 01:41:09;;;;;;;;;;;;;;;;;;5133654;27;21308;-59
2023/11/10 01:43:35;;;;;;;;;;;;;;;;;;5133692;27;19930;-60
2023/11/10 01:46:01;;;;;;;;;;;;;;;;;;5129562;27;19923;-59
2023/11/10 01:48:27;;;;;;;;;;;;;;;;;;5132220;27;19968;-59
2023/11/10 01:50:53;;;;;;;;;;;;;;;;;;5132300;27;20637;-59
2023/11/10 01:53:18;;;;;;;;;;;;;;;;;;5130767;27;19958;-59
2023/11/10 01:55:44;;;;;;;;;;;;;;;;;;5130447;27;19919;-59
2023/11/10 01:58:11;;;;;;;;;;;;;;;;;;5132515;27;19920;-59
2023/11/10 02:00:38;;;;;;;;;;;;;;;;;;5133171;27;19924;-59
2023/11/10 02:03:05;;;;;;;;;;;;;;;;;;5125084;27;19928;-59
2023/11/10 02:05:31;;;;;;;;;;;;;;;;;;5133252;27;19925;-59
2023/11/10 02:07:57;;;;;;;;;;;;;;;;;;5133305;27;20313;-60
2023/11/10 02:10:23;;;;;;;;;;;;;;;;;;5133215;27;19930;-60
2023/11/10 02:12:49;;;;;;;;;;;;;;;;;;5129809;27;19923;-60
2023/11/10 02:15:15;;;;;;;;;;;;;;;;;;5131919;27;19994;-60
2023/11/10 02:17:41;;;;;;;;;;;;;;;;;;5132654;27;20014;-60
2023/11/10 02:20:07;;;;;;;;;;;;;;;;;;5127716;27;19923;-60
2023/11/10 02:22:33;;;;;;;;;;;;;;;;;;5130587;27;19998;-60
2023/11/10 02:24:59;;;;;;;;;;;;;;;;;;5122511;27;20014;-60
2023/11/10 02:27:25;;;;;;;;;;;;;;;;;;5130497;27;20283;-60
2023/11/10 02:29:51;;;;;;;;;;;;;;;;;;5133070;27;19923;-60
2023/11/10 02:32:17;;;;;;;;;;;;;;;;;;5129032;27;20013;-59
2023/11/10 02:34:42;;;;;;;;;;;;;;;;;;5130055;27;19919;-60
2023/11/10 02:37:08;;;;;;;;;;;;;;;;;;5126865;27;19930;-60
2023/11/10 02:39:36;;;;;;;;;;;;;;;;;;5129702;27;20257;-60
2023/11/10 02:42:03;;;;;;;;;;;;;;;;;;5126497;27;19924;-60
2023/11/10 02:44:29;;;;;;;;;;;;;;;;;;5114265;27;20281;-60
2023/11/10 02:46:55;;;;;;;;;;;;;;;;;;5116176;27;19919;-60
2023/11/10 02:49:21;;;;;;;;;;;;;;;;;;5113764;27;19931;-60
2023/11/10 02:51:47;;;;;;;;;;;;;;;;;;5123456;27;19920;-60
2023/11/10 02:54:13;;;;;;;;;;;;;;;;;;5126272;27;19926;-60
2023/11/10 02:56:38;;;;;;;;;;;;;;;;;;5131799;27;19964;-60
2023/11/10 02:59:04;;;;;;;;;;;;;;;;;;5124006;28;19928;-60
2023/11/10 03:01:30;;;;;;;;;;;;;;;;;;5118411;28;19927;-60
2023/11/10 03:03:56;;;;;;;;;;;;;;;;;;5123259;28;20326;-60
2023/11/10 03:06:22;;;;;;;;;;;;;;;;;;5128162;27;19919;-60
2023/11/10 03:08:48;;;;;;;;;;;;;;;;;;5134425;27;19923;-60
2023/11/10 03:11:15;;;;;;;;;;;;;;;;;;5126218;27;20379;-60
2023/11/10 03:13:41;;;;;;;;;;;;;;;;;;5132933;27;19919;-60
2023/11/10 03:16:07;;;;;;;;;;;;;;;;;;5134137;27;19935;-59
2023/11/10 03:18:33;;;;;;;;;;;;;;;;;;5133507;27;19919;-60
2023/11/10 03:21:00;;;;;;;;;;;;;;;;;;5133877;27;19923;-60
2023/11/10 03:23:26;;;;;;;;;;;;;;;;;;5125835;27;19972;-60
2023/11/10 03:25:52;;;;;;;;;;;;;;;;;;5127004;27;19927;-60
2023/11/10 03:28:18;;;;;;;;;;;;;;;;;;5127749;27;20614;-59
2023/11/10 03:30:44;;;;;;;;;;;;;;;;;;5122368;27;19923;-60
2023/11/10 03:33:10;;;;;;;;;;;;;;;;;;5124467;27;19919;-60
2023/11/10 03:35:36;;;;;;;;;;;;;;;;;;5129856;27;20390;-60
2023/11/10 03:38:03;;;;;;;;;;;;;;;;;;5132536;27;19923;-60
2023/11/10 03:40:29;;;;;;;;;;;;;;;;;;5131302;27;19971;-60
2023/11/10 03:42:55;;;;;;;;;;;;;;;;;;5134736;27;19923;-60
2023/11/10 03:45:21;;;;;;;;;;;;;;;;;;5127096;27;19974;-60
2023/11/10 03:47:47;;;;;;;;;;;;;;;;;;5134996;27;20019;-60
2023/11/10 03:50:12;;;;;;;;;;;;;;;;;;5133230;27;19926;-60
2023/11/10 03:52:38;;;;;;;;;;;;;;;;;;5133298;27;19941;-60
2023/11/10 03:55:04;;;;;;;;;;;;;;;;;;5131453;27;20324;-60
2023/11/10 03:57:30;;;;;;;;;;;;;;;;;;5135390;27;19920;-60
2023/11/10 03:59:56;;;;;;;;;;;;;;;;;;5131905;27;19920;-60
2023/11/10 04:02:22;;;;;;;;;;;;;;;;;;5128208;27;19927;-60
2023/11/10 04:04:48;;;;;;;;;;;;;;;;;;5132886;27;19958;-60
2023/11/10 04:07:14;;;;;;;;;;;;;;;;;;5130823;27;19930;-60
2023/11/10 04:09:41;;;;;;;;;;;;;;;;;;5135408;27;19966;-59
2023/11/10 04:12:07;;;;;;;;;;;;;;;;;;5133322;27;19944;-59
2023/11/10 04:14:32;;;;;;;;;;;;;;;;;;5133611;27;19919;-59
2023/11/10 04:16:59;;;;;;;;;;;;;;;;;;5133715;27;19966;-60
2023/11/10 04:19:25;;;;;;;;;;;;;;;;;;5130298;27;19926;-59
2023/11/10 04:21:51;;;;;;;;;;;;;;;;;;5132485;27;19931;-59
2023/11/10 04:24:17;;;;;;;;;;;;;;;;;;5134127;27;19925;-60
2023/11/10 04:26:43;;;;;;;;;;;;;;;;;;5129062;27;20758;-60
2023/11/10 04:29:10;;;;;;;;;;;;;;;;;;5130890;27;19923;-59
2023/11/10 04:31:36;;;;;;;;;;;;;;;;;;5133010;27;19928;-60
2023/11/10 04:34:02;;;;;;;;;;;;;;;;;;5134225;27;19999;-60
2023/11/10 04:36:29;;;;;;;;;;;;;;;;;;5129004;27;19924;-60
2023/11/10 04:38:55;;;;;;;;;;;;;;;;;;5131935;27;20022;-60
2023/11/10 04:41:21;;;;;;;;;;;;;;;;;;5134109;27;20014;-60
2023/11/10 04:43:47;;;;;;;;;;;;;;;;;;5129594;27;19923;-60
2023/11/10 04:46:12;;;;;;;;;;;;;;;;;;5133911;27;19938;-60
2023/11/10 04:48:38;;;;;;;;;;;;;;;;;;5134406;27;20378;-60
2023/11/10 04:51:04;;;;;;;;;;;;;;;;;;5134307;27;19975;-60
2023/11/10 04:53:30;;;;;;;;;;;;;;;;;;5128657;27;19927;-60
2023/11/10 04:55:56;;;;;;;;;;;;;;;;;;5131709;27;20393;-60
2023/11/10 04:58:22;;;;;;;;;;;;;;;;;;5133871;27;19923;-60
2023/11/10 05:00:48;;;;;;;;;;;;;;;;;;5113836;27;20281;-60
2023/11/10 05:03:16;;;;;;;;;;;;;;;;;;5114631;27;19930;-60
2023/11/10 05:05:42;;;;;;;;;;;;;;;;;;5130863;27;19920;-60
2023/11/10 05:08:08;;;;;;;;;;;;;;;;;;5133031;27;20349;-60
2023/11/10 05:10:34;;;;;;;;;;;;;;;;;;5131351;27;19923;-60
2023/11/10 05:13:00;;;;;;;;;;;;;;;;;;5132517;27;20375;-60
2023/11/10 05:15:26;;;;;;;;;;;;;;;;;;5130111;27;20012;-60
2023/11/10 05:17:51;;;;;;;;;;;;;;;;;;5133821;27;19923;-60
2023/11/10 05:20:17;;;;;;;;;;;;;;;;;;5129724;27;19923;-60
2023/11/10 05:22:43;;;;;;;;;;;;;;;;;;5131055;27;20023;-60
2023/11/10 05:25:10;;;;;;;;;;;;;;;;;;5125382;27;20400;-60
2023/11/10 05:27:36;;;;;;;;;;;;;;;;;;5133359;27;19954;-60
2023/11/10 05:30:02;;;;;;;;;;;;;;;;;;5133303;27;20434;-61
2023/11/10 05:32:28;;;;;;;;;;;;;;;;;;5131631;27;19925;-60
2023/11/10 05:34:54;;;;;;;;;;;;;;;;;;5133347;27;20527;-60
2023/11/10 05:37:20;;;;;;;;;;;;;;;;;;5132051;27;19924;-60
2023/11/10 05:39:46;;;;;;;;;;;;;;;;;;5133431;27;20022;-61
2023/11/10 05:42:13;;;;;;;;;;;;;;;;;;5132492;27;20388;-60
2023/11/10 05:44:39;;;;;;;;;;;;;;;;;;5124329;27;20378;-60
2023/11/10 05:47:04;;;;;;;;;;;;;;;;;;5132226;27;19923;-60
2023/11/10 05:49:30;;;;;;;;;;;;;;;;;;5132873;27;19920;-60
2023/11/10 05:51:58;;;;;;;;;;;;;;;;;;5133448;27;19930;-60
2023/11/10 05:54:24;;;;;;;;;;;;;;;;;;5132124;27;19981;-60
2023/11/10 05:56:50;;;;;;;;;;;;;;;;;;5129312;27;19927;-60
2023/11/10 05:59:15;;;;;;;;;;;;;;;;;;5132058;27;20258;-60
2023/11/10 06:01:41;;;;;;;;;;;;;;;;;;5123538;27;19924;-60
2023/11/10 06:04:08;;;;;;;;;;;;;;;;;;5127770;27;20006;-60
2023/11/10 06:06:34;;;;;;;;;;;;;;;;;;5127408;27;19981;-60
2023/11/10 06:09:00;;;;;;;;;;;;;;;;;;5127214;27;19923;-61
2023/11/10 06:11:26;;;;;;;;;;;;;;;;;;5127991;27;19973;-60
2023/11/10 06:13:53;;;;;;;;;;;;;;;;;;5123565;27;19923;-60
2023/11/10 06:16:19;;;;;;;;;;;;;;;;;;5126472;27;20294;-60
2023/11/10 06:18:45;;;;;;;;;;;;;;;;;;5114713;27;20338;-60
2023/11/10 06:21:14;;;;;;;;;;;;;;;;;;5131854;27;20430;-59
2023/11/10 06:23:40;;;;;;;;;;;;;;;;;;5130008;27;20468;-59
2023/11/10 06:26:06;;;;;;;;;;;;;;;;;;5130961;27;19966;-59
2023/11/10 06:28:32;;;;;;;;;;;;;;;;;;5132504;27;19923;-59
2023/11/10 06:30:58;;;;;;;;;;;;;;;;;;5130562;27;20395;-59
2023/11/10 06:33:24;;;;;;;;;;;;;;;;;;5132543;27;20463;-59
2023/11/10 06:35:50;;;;;;;;;;;;;;;;;;5125612;27;19926;-59
2023/11/10 06:38:15;;;;;;;;;;;;;;;;;;5133048;27;20299;-59
2023/11/10 06:40:41;;;;;;;;;;;;;;;;;;5132364;27;19928;-59
2023/11/10 06:43:07;;;;;;;;;;;;;;;;;;5114089;27;19927;-60
2023/11/10 06:45:33;;;;;;;;;;;;;;;;;;5114540;28;20292;-60
2023/11/10 06:48:02;;;;;;;;;;;;;;;;;;5126500;27;19930;-60
2023/11/10 06:50:30;;;;;;;;;;;;;;;;;;5131308;27;19919;-60
2023/11/10 06:52:56;;;;;;;;;;;;;;;;;;5129710;27;20276;-59
2023/11/10 06:55:22;;;;;;;;;;;;;;;;;;5118117;27;19927;-60
2023/11/10 06:57:48;;;;;;;;;;;;;;;;;;5129418;28;19920;-60
2023/11/10 07:00:13;;;;;;;;;;;;;;;;;;5127407;27;19928;-60
2023/11/10 07:02:39;;;;;;;;;;;;;;;;;;5128713;28;19923;-60
2023/11/10 07:05:07;;;;;;;;;;;;;;;;;;5131151;27;20014;-60
2023/11/10 07:07:33;;;;;;;;;;;;;;;;;;5128379;28;19923;-60
2023/11/10 07:09:59;;;;;;;;;;;;;;;;;;5125359;27;19926;-60
2023/11/10 07:12:25;;;;;;;;;;;;;;;;;;5131866;27;20320;-60
2023/11/10 07:14:52;;;;;;;;;;;;;;;;;;5129426;27;19930;-60
2023/11/10 07:17:17;;;;;;;;;;;;;;;;;;5123867;27;19959;-60
2023/11/10 07:19:44;;;;;;;;;;;;;;;;;;5130542;27;19962;-60
2023/11/10 07:22:10;;;;;;;;;;;;;;;;;;5130852;27;20028;-60
2023/11/10 07:24:36;;;;;;;;;;;;;;;;;;5131948;27;19930;-59
2023/11/10 07:27:06;;;;;;;;;;;;;;;;;;5130848;27;20014;-59
2023/11/10 07:29:33;;;;;;;;;;;;;;;;;;5119718;28;19954;-59
2023/11/10 07:32:01;;;;;;;;;;;;;;;;;;5131036;27;19924;-62
2023/11/10 07:34:26;;;;;;;;;;;;;;;;;;5130885;27;19920;-64
2023/11/10 07:36:53;;;;;;;;;;;;;;;;;;5130340;27;19954;-64
2023/11/10 07:39:20;;;;;;;;;;;;;;;;;;5132312;27;19919;-64
2023/11/10 07:41:45;;;;;;;;;;;;;;;;;;5131673;27;19923;-64
2023/11/10 07:44:12;;;;;;;;;;;;;;;;;;5127505;27;19929;-63
2023/11/10 07:46:38;;;;;;;;;;;;;;;;;;5130414;27;19927;-64
2023/11/10 07:49:04;;;;;;;;;;;;;;;;;;5132013;27;19931;-64
2023/11/10 07:51:30;;;;;;;;;;;;;;;;;;5124177;27;19924;-63
2023/11/10 07:53:56;;;;;;;;;;;;;;;;;;5132524;27;20399;-63
2023/11/10 07:56:22;;;;;;;;;;;;;;;;;;5130294;27;19927;-63
2023/11/10 07:58:48;;;;;;;;;;;;;;;;;;5133122;27;19924;-64
2023/11/10 08:01:14;;;;;;;;;;;;;;;;;;5132725;27;20027;-64
2023/11/10 08:03:42;;;;;;;;;;;;;;;;;;5130584;27;20284;-64
2023/11/10 08:06:09;;;;;;;;;;;;;;;;;;5131249;27;20534;-64
2023/11/10 08:08:35;;;;;;;;;;;;;;;;;;5128582;27;20384;-64
2023/11/10 08:11:01;;;;;;;;;;;;;;;;;;5077520;22;19931;-63
2023/11/10 08:13:27;;;;;;;;;;;;;;;;;;5074046;28;19921;-63
2023/11/10 08:15:53;;;;;;;;;;;;;;;;;;5076741;28;19931;-64
2023/11/10 08:18:21;;;;;;;;;;;;;;;;;;5076793;28;20378;-64
2023/11/10 08:20:47;;;;;;;;;;;;;;;;;;5076684;28;20078;-63
2023/11/10 08:23:14;;;;;;;;;;;;;;;;;;5077363;28;20042;-63
2023/11/10 08:25:40;;;;;;;;;;;;;;;;;;5075168;28;19951;-64
2023/11/10 08:28:07;;;;;;;;;;;;;;;;;;5068204;28;19932;-63
2023/11/10 08:30:33;;;;;;;;;;;;;;;;;;5070306;28;20529;-64
2023/11/10 08:33:02;;;;;;;;;;;;;;;;;;5054872;28;19931;-63
2023/11/10 08:35:28;;;;;;;;;;;;;;;;;;5078139;28;19920;-63
2023/11/10 08:37:54;;;;;;;;;;;;;;;;;;5073140;28;19926;-63
2023/11/10 08:40:19;;;;;;;;;;;;;;;;;;5080925;28;19930;-64
2023/11/10 08:42:45;;;;;;;;;;;;;;;;;;5077642;28;19928;-64
2023/11/10 08:45:11;;;;;;;;;;;;;;;;;;5077355;28;20365;-63
2023/11/10 08:47:40;;;;;;;;;;;;;;;;;;5077762;28;19924;-64
2023/11/10 08:50:06;;;;;;;;;;;;;;;;;;5077194;28;19927;-63
2023/11/10 08:52:32;;;;;;;;;;;;;;;;;;5083336;28;20480;-63
2023/11/10 08:54:58;;;;;;;;;;;;;;;;;;5088306;28;19921;-63
2023/11/10 08:57:24;;;;;;;;;;;;;;;;;;5076967;28;20350;-64
2023/11/10 08:59:50;;;;;;;;;;;;;;;;;;5071662;28;19946;-64
2023/11/10 09:02:15;;;;;;;;;;;;;;;;;;5080026;28;19932;-64
2023/11/10 09:04:41;;;;;;;;;;;;;;;;;;5088248;28;20341;-64
2023/11/10 09:07:07;;;;;;;;;;;;;;;;;;5071829;28;19927;-64
2023/11/10 09:09:33;;;;;;;;;;;;;;;;;;5041436;28;19924;-64
2023/11/10 09:11:59;;;;;;;;;;;;;;;;;;5089635;28;20297;-63
2023/11/10 09:14:25;;;;;;;;;;;;;;;;;;5088022;28;20280;-63
2023/11/10 09:16:51;;;;;;;;;;;;;;;;;;5089683;28;19920;-63
2023/11/10 09:19:17;;;;;;;;;;;;;;;;;;5077102;28;20038;-63
2023/11/10 09:21:43;;;;;;;;;;;;;;;;;;5070923;28;19932;-63
2023/11/10 09:24:09;;;;;;;;;;;;;;;;;;5070031;28;20357;-59
2023/11/10 09:26:36;;;;;;;;;;;;;;;;;;5067403;28;19929;-58
2023/11/10 09:29:02;;;;;;;;;;;;;;;;;;5071835;28;19924;-58
2023/11/10 09:31:27;;;;;;;;;;;;;;;;;;5074614;28;19999;-58
2023/11/10 09:33:53;;;;;;;;;;;;;;;;;;5082261;28;19921;-59
2023/11/10 09:36:19;;;;;;;;;;;;;;;;;;5072275;28;20270;-59
2023/11/10 09:38:45;;;;;;;;;;;;;;;;;;5090716;28;19977;-58
2023/11/10 09:41:12;;;;;;;;;;;;;;;;;;5079978;28;19925;-58
2023/11/10 09:43:37;;;;;;;;;;;;;;;;;;5069919;28;19921;-58
2023/11/10 09:46:03;;;;;;;;;;;;;;;;;;5067617;28;19925;-58
2023/11/10 09:48:29;;;;;;;;;;;;;;;;;;5071112;28;19920;-58
2023/11/10 09:50:55;;;;;;;;;;;;;;;;;;5069578;28;19925;-58
2023/11/10 09:53:22;;;;;;;;;;;;;;;;;;5091030;28;19969;-59
2023/11/10 09:55:48;;;;;;;;;;;;;;;;;;5081949;28;19920;-59
2023/11/10 09:58:14;;;;;;;;;;;;;;;;;;5077906;28;19927;-59
2023/11/10 10:00:40;;;;;;;;;;;;;;;;;;5068074;28;20019;-59
2023/11/10 10:03:08;;;;;;;;;;;;;;;;;;5070519;28;20143;-59
2023/11/10 10:05:34;;;;;;;;;;;;;;;;;;5084812;28;19924;-59
2023/11/10 10:08:00;;;;;;;;;;;;;;;;;;5081246;28;19927;-59
2023/11/10 10:10:26;;;;;;;;;;;;;;;;;;5057317;28;19924;-59
2023/11/10 10:12:53;;;;;;;;;;;;;;;;;;5060599;28;19946;-59
2023/11/10 10:15:19;;;;;;;;;;;;;;;;;;5067993;28;19964;-60
2023/11/10 10:17:45;;;;;;;;;;;;;;;;;;5069412;28;19960;-59
2023/11/10 10:20:14;;;;;;;;;;;;;;;;;;5054287;28;19924;-59
2023/11/10 10:22:40;;;;;;;;;;;;;;;;;;5070453;28;19925;-59
2023/11/10 10:25:06;;;;;;;;;;;;;;;;;;5071704;28;19970;-59
2023/11/10 10:27:32;;;;;;;;;;;;;;;;;;5071119;28;19947;-59
2023/11/10 10:29:59;;;;;;;;;;;;;;;;;;5060996;28;19928;-59
2023/11/10 10:32:25;;;;;;;;;;;;;;;;;;5071919;28;19928;-60
2023/11/10 10:34:51;;;;;;;;;;;;;;;;;;5070290;28;20341;-59
2023/11/10 10:37:17;;;;;;;;;;;;;;;;;;5071425;28;19927;-59
2023/11/10 10:39:44;;;;;;;;;;;;;;;;;;5071594;28;19931;-59
2023/11/10 10:42:10;;;;;;;;;;;;;;;;;;5071804;28;19975;-60
2023/11/10 10:44:36;;;;;;;;;;;;;;;;;;5069569;28;19971;-59
2023/11/10 10:47:01;;;;;;;;;;;;;;;;;;5070539;28;20350;-60
2023/11/10 10:49:27;;;;;;;;;;;;;;;;;;5071343;28;19981;-60
2023/11/10 10:51:53;;;;;;;;;;;;;;;;;;5064356;28;19965;-60
2023/11/10 10:54:19;;;;;;;;;;;;;;;;;;5052182;28;20273;-60
2023/11/10 10:56:45;;;;;;;;;;;;;;;;;;5052996;28;19931;-60
2023/11/10 10:59:11;;;;;;;;;;;;;;;;;;5069957;28;19929;-59
2023/11/10 11:01:37;;;;;;;;;;;;;;;;;;5068082;28;19932;-59
2023/11/10 11:04:03;;;;;;;;;;;;;;;;;;5069348;28;19928;-60
2023/11/10 11:06:30;;;;;;;;;;;;;;;;;;5069193;28;19927;-60
2023/11/10 11:08:57;;;;;;;;;;;;;;;;;;5069247;28;19944;-60
2023/11/10 11:11:23;;;;;;;;;;;;;;;;;;5068211;28;19924;-59
2023/11/10 11:13:48;;;;;;;;;;;;;;;;;;5068213;28;19925;-60
2023/11/10 11:16:15;;;;;;;;;;;;;;;;;;5069786;28;19921;-59
2023/11/10 11:18:40;;;;;;;;;;;;;;;;;;5069476;28;19924;-60
2023/11/10 11:21:06;;;;;;;;;;;;;;;;;;5066173;28;20041;-59
2023/11/10 11:23:36;;;;;;;;;;;;;;;;;;5050462;28;19925;-60
2023/11/10 11:26:04;;;;;;;;;;;;;;;;;;5068936;28;19927;-59
2023/11/10 11:28:30;;;;;;;;;;;;;;;;;;5052803;28;19928;-60
2023/11/10 11:30:56;;;;;;;;;;;;;;;;;;5074125;28;19921;-60
2023/11/10 11:33:22;;;;;;;;;;;;;;;;;;5073353;28;20300;-59
2023/11/10 11:35:48;;;;;;;;;;;;;;;;;;5073724;28;20010;-60
2023/11/10 11:38:14;;;;;;;;;;;;;;;;;;5073791;28;20324;-59
2023/11/10 11:40:40;;;;;;;;;;;;;;;;;;5073678;28;20277;-58
2023/11/10 11:43:06;;;;;;;;;;;;;;;;;;5074154;28;19959;-58
2023/11/10 11:45:33;;;;;;;;;;;;;;;;;;5073593;28;19943;-58
2023/11/10 11:47:59;;;;;;;;;;;;;;;;;;5055766;28;19928;-58
2023/11/10 11:50:25;;;;;;;;;;;;;;;;;;5073782;28;19945;-59
2023/11/10 11:52:51;;;;;;;;;;;;;;;;;;5073861;28;19943;-59
2023/11/10 11:55:19;;;;;;;;;;;;;;;;;;5054954;28;19932;-58
2023/11/10 11:57:46;;;;;;;;;;;;;;;;;;5054275;28;19928;-58
2023/11/10 12:00:12;;;;;;;;;;;;;;;;;;5073723;28;19928;-59
2023/11/10 12:02:39;;;;;;;;;;;;;;;;;;5069627;28;19929;-59
2023/11/10 12:05:05;;;;;;;;;;;;;;;;;;5072783;28;19920;-59
2023/11/10 12:07:31;;;;;;;;;;;;;;;;;;5073681;28;19921;-59
2023/11/10 12:09:57;;;;;;;;;;;;;;;;;;5056188;28;19935;-59
2023/11/10 12:12:23;;;;;;;;;;;;;;;;;;5074301;28;20370;-59
2023/11/10 12:14:50;;;;;;;;;;;;;;;;;;5072628;28;19921;-59
2023/11/10 12:17:16;;;;;;;;;;;;;;;;;;5072832;28;19927;-59
2023/11/10 12:19:42;;;;;;;;;;;;;;;;;;5073759;28;19961;-59
2023/11/10 12:22:08;;;;;;;;;;;;;;;;;;5074004;28;20282;-59
2023/11/10 12:24:35;;;;;;;;;;;;;;;;;;5038716;28;19932;-59
2023/11/10 12:27:01;;;;;;;;;;;;;;;;;;5073300;28;19983;-59
2023/11/10 12:29:32;;;;;;;;;;;;;;;;;;5073472;28;19968;-59
2023/11/10 12:31:58;;;;;;;;;;;;;;;;;;5073260;28;19928;-59
2023/11/10 12:34:27;;;;;;;;;;;;;;;;;;5074000;28;19924;-59
2023/11/10 12:36:55;;;;;;;;;;;;;;;;;;5073605;28;20250;-59
2023/11/10 12:39:21;;;;;;;;;;;;;;;;;;5073726;28;19925;-59
2023/11/10 12:41:47;;;;;;;;;;;;;;;;;;5055312;28;19928;-59
2023/11/10 12:44:14;;;;;;;;;;;;;;;;;;5069213;28;19931;-59
2023/11/10 12:46:40;;;;;;;;;;;;;;;;;;5073051;28;19921;-59
2023/11/10 12:49:06;;;;;;;;;;;;;;;;;;5073027;28;19928;-59
2023/11/10 12:51:32;;;;;;;;;;;;;;;;;;5073393;28;20019;-59
2023/11/10 12:53:58;;;;;;;;;;;;;;;;;;5055155;28;19928;-59
2023/11/10 12:56:25;;;;;;;;;;;;;;;;;;5072020;28;19924;-59
2023/11/10 12:58:51;;;;;;;;;;;;;;;;;;5073494;28;19921;-59
2023/11/10 13:01:17;;;;;;;;;;;;;;;;;;5053325;28;20259;-59
2023/11/10 13:03:43;;;;;;;;;;;;;;;;;;5070274;28;19920;-59
2023/11/10 13:06:09;;;;;;;;;;;;;;;;;;5072502;28;19932;-59
2023/11/10 13:08:35;;;;;;;;;;;;;;;;;;5072581;28;19924;-59
2023/11/10 13:11:01;;;;;;;;;;;;;;;;;;5072465;28;19935;-59
2023/11/10 13:13:27;;;;;;;;;;;;;;;;;;5072798;28;19924;-59
2023/11/10 13:15:54;;;;;;;;;;;;;;;;;;5072349;28;19920;-59
2023/11/10 13:18:20;;;;;;;;;;;;;;;;;;5072565;28;20415;-59
2023/11/10 13:20:46;;;;;;;;;;;;;;;;;;5073208;28;19936;-59
2023/11/10 13:23:12;;;;;;;;;;;;;;;;;;5054521;28;19966;-59
2023/11/10 13:25:37;;;;;;;;;;;;;;;;;;5071226;28;20373;-59
2023/11/10 13:28:07;;;;;;;;;;;;;;;;;;5054367;28;19921;-59
2023/11/10 13:30:33;;;;;;;;;;;;;;;;;;5072855;28;19965;-59
2023/11/10 13:32:59;;;;;;;;;;;;;;;;;;5072655;28;19921;-59
2023/11/10 13:35:25;;;;;;;;;;;;;;;;;;5072482;28;19921;-59
2023/11/10 13:37:51;;;;;;;;;;;;;;;;;;5070607;28;20031;-59
2023/11/10 13:40:17;;;;;;;;;;;;;;;;;;5069406;28;20011;-59
2023/11/10 13:42:43;;;;;;;;;;;;;;;;;;5072427;28;20281;-59
2023/11/10 13:45:10;;;;;;;;;;;;;;;;;;5080070;28;19920;-59
2023/11/10 13:47:36;;;;;;;;;;;;;;;;;;5071031;28;19927;-59
2023/11/10 13:50:02;;;;;;;;;;;;;;;;;;5072216;28;19924;-59
2023/11/10 13:52:28;;;;;;;;;;;;;;;;;;5071314;28;20273;-59
2023/11/10 13:54:54;;;;;;;;;;;;;;;;;;5049140;28;19920;-59
2023/11/10 13:57:20;;;;;;;;;;;;;;;;;;5067219;28;19928;-59
2023/11/10 13:59:46;;;;;;;;;;;;;;;;;;5053784;28;19931;-59
2023/11/10 14:02:12;;;;;;;;;;;;;;;;;;5071791;28;19936;-59
2023/11/10 14:04:38;;;;;;;;;;;;;;;;;;5069367;28;20449;-59
2023/11/10 14:07:04;;;;;;;;;;;;;;;;;;5071603;28;19931;-59
2023/11/10 14:09:32;;;;;;;;;;;;;;;;;;5072009;28;20331;-59
2023/11/10 14:11:58;;;;;;;;;;;;;;;;;;5070486;28;19982;-59
2023/11/10 14:14:24;;;;;;;;;;;;;;;;;;5076069;28;20357;-59
2023/11/10 14:16:50;;;;;;;;;;;;;;;;;;5078484;28;19920;-59
2023/11/10 14:19:17;;;;;;;;;;;;;;;;;;5086864;28;19924;-59
2023/11/10 14:21:43;;;;;;;;;;;;;;;;;;5089989;28;20357;-59
2023/11/10 14:24:09;;;;;;;;;;;;;;;;;;5085153;28;19920;-59
2023/11/10 14:26:35;;;;;;;;;;;;;;;;;;5081702;28;20168;-59
2023/11/10 14:29:01;;;;;;;;;;;;;;;;;;5070676;28;19977;-59
2023/11/10 14:31:28;;;;;;;;;;;;;;;;;;5069969;28;20338;-59
2023/11/10 14:33:55;;;;;;;;;;;;;;;;;;5071543;28;20343;-59
2023/11/10 14:36:21;;;;;;;;;;;;;;;;;;5090193;28;20393;-59
2023/11/10 14:38:47;;;;;;;;;;;;;;;;;;5088461;28;20046;-60
2023/11/10 14:41:13;;;;;;;;;;;;;;;;;;5090237;28;20444;-60
2023/11/10 14:43:39;;;;;;;;;;;;;;;;;;5089623;28;19924;-60
2023/11/10 14:46:08;;;;;;;;;;;;;;;;;;5090787;28;20014;-61
2023/11/10 14:48:40;;;;;;;;;;;;;;;;;;5075338;28;19948;-60
2023/11/10 14:51:07;;;;;;;;;;;;;;;;;;5071279;28;20297;-60
2023/11/10 14:53:33;;;;;;;;;;;;;;;;;;5069326;28;20033;-60
2023/11/10 14:56:00;;;;;;;;;;;;;;;;;;5071151;28;20397;-60
2023/11/10 14:58:25;;;;;;;;;;;;;;;;;;5068914;28;19924;-60
2023/11/10 15:00:53;;;;;;;;;;;;;;;;;;5070798;28;19988;-60
2023/11/10 15:03:20;;;;;;;;;;;;;;;;;;5069156;28;19921;-60
2023/11/10 15:05:46;;;;;;;;;;;;;;;;;;5072836;28;19927;-60
2023/11/10 15:08:14;;;;;;;;;;;;;;;;;;5077503;28;19924;-60
2023/11/10 15:10:42;;;;;;;;;;;;;;;;;;5066278;28;20316;-61
2023/11/10 15:13:08;;;;;;;;;;;;;;;;;;5069341;28;19966;-61
2023/11/10 15:15:34;;;;;;;;;;;;;;;;;;5077928;28;19935;-58
2023/11/10 15:18:02;;;;;;;;;;;;;;;;;;5076554;28;20030;-60
2023/11/10 15:20:28;;;;;;;;;;;;;;;;;;5076393;28;19986;-60
2023/11/10 15:22:54;;;;;;;;;;;;;;;;;;5059020;28;19928;-59
2023/11/10 15:25:22;;;;;;;;;;;;;;;;;;5077473;28;19920;-59
2023/11/10 15:27:50;;;;;;;;;;;;;;;;;;5060125;28;19920;-59
2023/11/10 15:30:16;;;;;;;;;;;;;;;;;;5050136;28;19924;-59
2023/11/10 15:32:42;;;;;;;;;;;;;;;;;;5077642;28;19974;-59
2023/11/10 15:35:08;;;;;;;;;;;;;;;;;;5061218;28;19993;-59
2023/11/10 15:37:41;;;;;;;;;;;;;;;;;;5053401;28;19947;-59
2023/11/10 15:40:07;;;;;;;;;;;;;;;;;;5077797;28;19946;-59
2023/11/10 15:42:34;;;;;;;;;;;;;;;;;;5076747;28;20007;-59
2023/11/10 15:45:01;;;;;;;;;;;;;;;;;;5066786;28;19963;-59
2023/11/10 15:47:28;;;;;;;;;;;;;;;;;;5076015;28;20277;-59
2023/11/10 15:49:54;;;;;;;;;;;;;;;;;;5084027;28;20473;-59
2023/11/10 15:52:20;;;;;;;;;;;;;;;;;;5083306;28;19951;-59
2023/11/10 15:54:46;;;;;;;;;;;;;;;;;;5072648;28;20003;-59
2023/11/10 15:57:12;;;;;;;;;;;;;;;;;;5073062;28;20655;-61
2023/11/10 15:59:38;;;;;;;;;;;;;;;;;;5078608;28;20273;-60
2023/11/10 16:02:06;;;;;;;;;;;;;;;;;;5058830;28;19931;-60
2023/11/10 16:04:32;;;;;;;;;;;;;;;;;;5082732;28;19974;-60
2023/11/10 16:06:58;;;;;;;;;;;;;;;;;;5079093;28;19921;-60
2023/11/10 16:09:25;;;;;;;;;;;;;;;;;;5074803;28;19928;-60
2023/11/10 16:11:52;;;;;;;;;;;;;;;;;;5086293;28;19943;-60
2023/11/10 16:14:19;;;;;;;;;;;;;;;;;;5077068;28;19932;-60
2023/11/10 16:16:45;;;;;;;;;;;;;;;;;;5067844;28;20282;-60
2023/11/10 16:19:12;;;;;;;;;;;;;;;;;;5077565;28;19924;-60
2023/11/10 16:21:38;;;;;;;;;;;;;;;;;;5075418;28;19924;-60
2023/11/10 16:24:04;;;;;;;;;;;;;;;;;;5068252;28;19969;-60
2023/11/10 16:26:30;;;;;;;;;;;;;;;;;;5054256;28;20397;-59
2023/11/10 16:28:56;;;;;;;;;;;;;;;;;;5071221;28;19920;-59
2023/11/10 16:31:22;;;;;;;;;;;;;;;;;;5071069;28;19920;-59
2023/11/10 16:33:48;;;;;;;;;;;;;;;;;;5054192;28;19924;-59
2023/11/10 16:36:14;;;;;;;;;;;;;;;;;;5041336;28;19927;-60
2023/11/10 16:38:40;;;;;;;;;;;;;;;;;;5052674;28;20015;-60